This is the latest recevied weather packets stored in our database for station/object KD8DNS. If no packets are shown the sender has not sent any weather packets the latest 10 day(s).
| Time | Temp. | Humidity | Pressure | Rain* | Wind** | Luminosity | Snow |
|---|---|---|---|---|---|---|---|
| 1788281895 | 32.78° C | 63% | 1022 hPa | 0 mm | - | 592 W/m² | - |
| 1788281590 | 32.78° C | 62% | 1021.9 hPa | 0 mm | - | 597 W/m² | - |
| 1788281287 | 32.78° C | 62% | 1022.1 hPa | 0 mm | - | 592 W/m² | - |
| 1788280982 | 32.78° C | 61% | 1022.2 hPa | 0 mm | - | 560 W/m² | - |
| 1788280677 | 32.78° C | 61% | 1022.1 hPa | 0 mm | - | 576 W/m² | - |
| 1788280376 | 32.78° C | 64% | 1021.9 hPa | 0 mm | - | 586 W/m² | - |
| 1788280071 | 32.22° C | 64% | 1022.1 hPa | 0 mm | - | 585 W/m² | - |
| 1788279771 | 32.22° C | 64% | 1022.1 hPa | 0 mm | - | 577 W/m² | - |
| 1788279470 | 32.22° C | 64% | 1022 hPa | 0 mm | - | 572 W/m² | - |
| 1788279164 | 32.22° C | 63% | 1022.1 hPa | 0 mm | - | 596 W/m² | - |
| 1788278861 | 32.22° C | 64% | 1022 hPa | 0 mm | - | 582 W/m² | - |
| 1788278556 | 31.67° C | 64% | 1021.9 hPa | 0 mm | - | 582 W/m² | - |
| 1788278255 | 32.22° C | 65% | 1022.1 hPa | 0 mm | - | 576 W/m² | - |
| 1788277950 | 31.67° C | 64% | 1022 hPa | 0 mm | - | 569 W/m² | - |
| 1788277645 | 31.67° C | 65% | 1022.1 hPa | 0 mm | - | 574 W/m² | - |
| 1788277335 | 31.67° C | 67% | 1022 hPa | 0 mm | - | 534 W/m² | - |
| 1788277031 | 31.67° C | 67% | 1022.1 hPa | 0 mm | - | 568 W/m² | - |
| 1788276730 | 31.67° C | 65% | 1022.1 hPa | 0 mm | - | 559 W/m² | - |
| 1788276424 | 31.11° C | 66% | 1022 hPa | 0 mm | - | 513 W/m² | - |
| 1788276122 | 31.67° C | 65% | 1022.1 hPa | 0 mm | - | 496 W/m² | - |
| 1788275819 | 31.11° C | 67% | 1021.8 hPa | 0 mm | - | 484 W/m² | - |
| 1788275518 | 31.11° C | 66% | 1022.1 hPa | 0 mm | - | 491 W/m² | - |
| 1788275218 | 30.56° C | 69% | 1021.8 hPa | 0 mm | - | 459 W/m² | - |
| 1788274916 | 30.56° C | 69% | 1022.1 hPa | 0 mm | - | 448 W/m² | - |
| 1788274613 | 30.56° C | 69% | 1022.1 hPa | 0 mm | - | 459 W/m² | - |
* Rain latest hour (hover to see other rain measurements)
** Current wind speed in m/s (hover to see current wind gust speed)